createdAt,value
2022-12-25T00:00:12.663Z,-6.06
2022-12-25T00:02:46.820Z,-6.07
2022-12-25T00:05:15.544Z,-6.13
2022-12-25T00:07:44.007Z,-6.15
2022-12-25T00:10:12.889Z,-6.21
2022-12-25T00:12:41.336Z,-6.26
2022-12-25T00:15:10.627Z,-6.29
2022-12-25T00:17:39.062Z,-6.31
2022-12-25T00:20:10.614Z,-6.35
2022-12-25T00:22:39.063Z,-6.37
2022-12-25T00:25:07.920Z,-6.34
2022-12-25T00:27:37.956Z,-6.33
2022-12-25T00:30:07.990Z,-6.28
2022-12-25T00:32:37.708Z,-6.31
2022-12-25T00:35:08.743Z,-6.34
2022-12-25T00:37:37.323Z,-6.34
2022-12-25T00:40:06.701Z,-6.31
2022-12-25T00:42:35.178Z,-6.28
2022-12-25T00:45:05.007Z,-6.32
2022-12-25T00:47:33.387Z,-6.34
2022-12-25T00:50:02.390Z,-6.36
2022-12-25T00:52:32.677Z,-6.37
2022-12-25T00:55:01.219Z,-6.35
2022-12-25T00:57:29.945Z,-6.32
2022-12-25T00:59:58.404Z,-6.33
2022-12-25T01:02:27.088Z,-6.31
2022-12-25T01:04:57.652Z,-6.34
2022-12-25T01:07:28.178Z,-6.36
2022-12-25T01:10:15.308Z,-6.37
2022-12-25T01:12:45.404Z,-6.38
2022-12-25T01:15:14.829Z,-6.40
2022-12-25T01:17:43.846Z,-6.41
2022-12-25T01:20:14.263Z,-6.44
2022-12-25T01:22:42.778Z,-6.39
2022-12-25T01:25:14.452Z,-6.32
2022-12-25T01:27:43.052Z,-6.30
2022-12-25T01:30:12.828Z,-6.29
2022-12-25T01:32:41.455Z,-6.29
2022-12-25T01:35:10.461Z,-6.29
2022-12-25T01:37:39.419Z,-6.30
2022-12-25T01:40:09.470Z,-6.29
2022-12-25T01:42:39.529Z,-6.30
2022-12-25T01:45:40.046Z,-6.32
2022-12-25T01:48:14.447Z,-6.36
2022-12-25T01:50:46.002Z,-6.39
2022-12-25T01:53:15.010Z,-6.42
2022-12-25T01:55:46.991Z,-6.45
2022-12-25T01:58:17.647Z,-6.46
2022-12-25T02:00:46.493Z,-6.46
2022-12-25T02:03:15.594Z,-6.47
2022-12-25T02:05:44.755Z,-6.49
2022-12-25T02:08:15.872Z,-6.46
2022-12-25T02:10:45.029Z,-6.46
2022-12-25T02:13:15.628Z,-6.52
2022-12-25T02:15:53.819Z,-6.53
2022-12-25T02:18:35.143Z,-6.53
2022-12-25T02:21:31.608Z,-6.54
2022-12-25T02:24:20.422Z,-6.53
2022-12-25T02:27:10.314Z,-6.57
2022-12-25T02:29:49.295Z,-6.52
2022-12-25T02:32:24.247Z,-6.49
2022-12-25T02:34:58.135Z,-6.48
2022-12-25T02:37:32.030Z,-6.48
2022-12-25T02:40:08.221Z,-6.51
2022-12-25T02:43:02.519Z,-6.49
2022-12-25T02:45:53.590Z,-6.47
2022-12-25T02:48:42.532Z,-6.52
2022-12-25T02:51:32.853Z,-6.65
2022-12-25T02:54:22.628Z,-6.63
2022-12-25T02:57:25.772Z,-6.60
2022-12-25T03:00:15.354Z,-6.60
2022-12-25T03:03:06.210Z,-6.61
2022-12-25T03:05:56.196Z,-6.57
2022-12-25T03:08:32.131Z,-6.62
2022-12-25T03:11:22.268Z,-6.64
2022-12-25T03:13:54.623Z,-6.61
2022-12-25T03:16:41.719Z,-6.63
2022-12-25T03:19:25.608Z,-6.63
2022-12-25T03:22:10.197Z,-6.65
2022-12-25T03:24:56.043Z,-6.71
2022-12-25T03:27:25.028Z,-6.73
2022-12-25T03:30:11.055Z,-6.78
2022-12-25T03:32:44.739Z,-6.79
2022-12-25T03:35:23.397Z,-6.78
2022-12-25T03:38:17.030Z,-6.75
2022-12-25T03:41:15.166Z,-6.65
2022-12-25T03:44:09.405Z,-6.59
2022-12-25T03:47:03.837Z,-6.49
2022-12-25T03:49:56.477Z,-6.41
2022-12-25T03:52:46.617Z,-6.35
2022-12-25T03:55:35.059Z,-6.28
2022-12-25T03:58:21.052Z,-6.28
2022-12-25T04:01:06.792Z,-6.28
2022-12-25T04:03:53.171Z,-6.27
2022-12-25T04:06:39.593Z,-6.24
2022-12-25T04:09:30.087Z,-6.25
2022-12-25T04:12:26.555Z,-6.24
2022-12-25T04:15:24.460Z,-6.19
2022-12-25T04:18:14.026Z,-6.22
2022-12-25T04:21:11.676Z,-6.18
2022-12-25T04:24:01.120Z,-6.25
2022-12-25T04:26:49.050Z,-6.45
2022-12-25T04:29:37.956Z,-6.85
2022-12-25T04:32:26.473Z,-6.89
2022-12-25T04:35:15.533Z,-6.80
2022-12-25T04:37:44.655Z,-6.69
2022-12-25T04:40:15.956Z,-6.61
2022-12-25T04:42:53.342Z,-6.60
2022-12-25T04:45:22.397Z,-6.56
2022-12-25T04:47:54.183Z,-6.59
2022-12-25T04:50:25.593Z,-6.59
2022-12-25T04:53:01.475Z,-6.53
2022-12-25T04:55:32.240Z,-6.49
2022-12-25T04:58:03.453Z,-6.51
2022-12-25T05:00:42.995Z,-6.49
2022-12-25T05:03:12.703Z,-6.40
2022-12-25T05:05:42.031Z,-6.45
2022-12-25T05:08:14.111Z,-6.47
2022-12-25T05:10:43.785Z,-6.47
2022-12-25T05:13:14.538Z,-6.44
2022-12-25T05:15:48.755Z,-6.40
2022-12-25T05:18:17.792Z,-6.29
2022-12-25T05:20:53.873Z,-6.27
2022-12-25T05:23:23.364Z,-6.17
2022-12-25T05:25:52.323Z,-6.52
2022-12-25T05:28:22.898Z,-6.87
2022-12-25T05:30:51.883Z,-6.74
2022-12-25T05:33:20.933Z,-6.75
2022-12-25T05:35:52.611Z,-6.71
2022-12-25T05:38:21.533Z,-6.77
2022-12-25T05:40:52.991Z,-6.81
2022-12-25T05:43:27.320Z,-6.53
2022-12-25T05:45:56.828Z,-6.46
2022-12-25T05:48:28.366Z,-6.53
2022-12-25T05:50:57.243Z,-6.51
2022-12-25T05:53:27.845Z,-6.46
2022-12-25T05:55:56.834Z,-6.42
2022-12-25T05:58:27.106Z,-6.25
2022-12-25T06:00:56.084Z,-6.15
2022-12-25T06:03:25.747Z,-6.16
2022-12-25T06:05:55.116Z,-6.28
2022-12-25T06:08:26.174Z,-6.20
2022-12-25T06:10:55.027Z,-6.15
2022-12-25T06:13:23.799Z,-6.11
2022-12-25T06:15:54.538Z,-6.11
2022-12-25T06:18:23.535Z,-6.16
2022-12-25T06:20:52.315Z,-6.06
2022-12-25T06:23:21.271Z,-5.93
2022-12-25T06:25:49.970Z,-6.38
2022-12-25T06:28:18.612Z,-6.51
2022-12-25T06:30:47.443Z,-6.72
2022-12-25T06:33:17.428Z,-7.05
2022-12-25T06:35:46.098Z,-7.03
2022-12-25T06:38:14.816Z,-7.02
2022-12-25T06:40:43.816Z,-6.94
2022-12-25T06:43:12.933Z,-7.11
2022-12-25T06:45:42.070Z,-7.34
2022-12-25T06:48:10.962Z,-7.29
2022-12-25T06:50:45.493Z,-7.46
2022-12-25T06:53:16.734Z,-7.67
2022-12-25T06:55:45.389Z,-7.66
2022-12-25T06:58:18.611Z,-7.79
2022-12-25T07:00:50.507Z,-7.71
2022-12-25T07:03:23.192Z,-7.86
2022-12-25T07:05:53.418Z,-7.86
2022-12-25T07:08:22.205Z,-7.81
2022-12-25T07:10:53.786Z,-7.78
2022-12-25T07:13:22.658Z,-7.71
2022-12-25T07:15:57.554Z,-7.82
2022-12-25T07:18:30.440Z,-7.71
2022-12-25T07:21:00.759Z,-7.71
2022-12-25T07:23:30.886Z,-7.68
2022-12-25T07:26:01.823Z,-7.71
2022-12-25T07:28:30.871Z,-7.69
2022-12-25T07:31:06.397Z,-7.84
2022-12-25T07:33:35.318Z,-7.92
2022-12-25T07:36:05.751Z,-8.03
2022-12-25T07:38:34.579Z,-7.95
2022-12-25T07:41:03.009Z,-7.89
2022-12-25T07:43:31.838Z,-7.94
2022-12-25T07:46:01.334Z,-7.75
2022-12-25T07:48:30.295Z,-7.40
2022-12-25T07:50:59.856Z,-7.23
2022-12-25T07:53:30.064Z,-7.08
2022-12-25T07:55:59.976Z,-6.92
2022-12-25T07:58:28.544Z,-6.75
2022-12-25T08:00:57.715Z,-6.64
2022-12-25T08:03:26.451Z,-6.60
2022-12-25T08:05:55.067Z,-6.53
2022-12-25T08:08:23.583Z,-6.43
2022-12-25T08:10:53.456Z,-6.39
2022-12-25T08:13:22.023Z,-6.31
2022-12-25T08:15:50.475Z,-6.32
2022-12-25T08:18:21.256Z,-6.35
2022-12-25T08:20:51.855Z,-6.35
2022-12-25T08:23:20.358Z,-6.33
2022-12-25T08:25:48.938Z,-6.21
2022-12-25T08:28:18.822Z,-6.22
2022-12-25T08:30:47.370Z,-6.15
2022-12-25T08:33:15.898Z,-6.13
2022-12-25T08:35:44.379Z,-6.13
2022-12-25T08:38:12.714Z,-6.09
2022-12-25T08:40:41.181Z,-6.09
2022-12-25T08:43:09.559Z,-6.04
2022-12-25T08:45:39.677Z,-5.99
2022-12-25T08:48:08.194Z,-6.02
2022-12-25T08:50:36.626Z,-6.02
2022-12-25T08:53:05.018Z,-5.96
2022-12-25T08:55:33.831Z,-6.04
2022-12-25T08:58:02.358Z,-6.07
2022-12-25T09:00:30.797Z,-6.06
2022-12-25T09:03:00.838Z,-6.18
2022-12-25T09:05:29.325Z,-6.25
2022-12-25T09:07:57.869Z,-6.31
2022-12-25T09:10:26.295Z,-6.33
2022-12-25T09:12:54.647Z,-6.25
2022-12-25T09:15:23.158Z,-6.22
2022-12-25T09:17:51.659Z,-6.18
2022-12-25T09:20:21.625Z,-6.16
2022-12-25T09:22:50.160Z,-6.17
2022-12-25T09:25:18.661Z,-6.17
2022-12-25T09:27:47.185Z,-6.21
2022-12-25T09:30:15.980Z,-6.23
2022-12-25T09:32:44.324Z,-6.19
2022-12-25T09:35:14.211Z,-6.19
2022-12-25T09:37:44.222Z,-6.15
2022-12-25T09:40:16.844Z,-6.11
2022-12-25T09:42:45.722Z,-6.09
2022-12-25T09:45:19.381Z,-6.11
2022-12-25T09:47:50.686Z,-6.12
2022-12-25T09:50:24.219Z,-6.08
2022-12-25T09:52:57.964Z,-6.06
2022-12-25T09:55:31.306Z,-6.00
2022-12-25T09:58:02.354Z,-5.97
2022-12-25T10:00:37.799Z,-5.94
2022-12-25T10:03:22.372Z,-5.90
2022-12-25T10:06:04.298Z,-5.81
2022-12-25T10:08:53.021Z,-5.79
2022-12-25T10:11:35.848Z,-5.73
2022-12-25T10:14:17.484Z,-5.68
2022-12-25T10:16:51.740Z,-5.56
2022-12-25T10:19:33.153Z,-5.63
2022-12-25T10:22:05.311Z,-5.78
2022-12-25T10:24:39.668Z,-5.81
2022-12-25T10:27:18.731Z,-5.79
2022-12-25T10:29:51.418Z,-5.76
2022-12-25T10:32:19.939Z,-5.71
2022-12-25T10:34:48.621Z,-5.70
2022-12-25T10:37:18.281Z,-5.65
2022-12-25T10:39:48.130Z,-5.63
2022-12-25T10:42:40.744Z,-5.55
2022-12-25T10:45:11.021Z,-5.53
2022-12-25T10:47:42.844Z,-5.54
2022-12-25T10:50:14.120Z,-5.48
2022-12-25T10:52:50.857Z,-5.44
2022-12-25T10:55:28.203Z,-5.37
2022-12-25T10:57:58.921Z,-5.32
2022-12-25T11:00:30.000Z,-5.29
2022-12-25T11:02:59.398Z,-5.30
2022-12-25T11:05:30.515Z,-5.25
2022-12-25T11:08:00.986Z,-5.24
2022-12-25T11:10:33.418Z,-5.22
2022-12-25T11:13:03.424Z,-5.17
2022-12-25T11:15:39.892Z,-5.10
2022-12-25T11:18:21.250Z,-5.09
2022-12-25T11:20:51.223Z,-5.04
2022-12-25T11:23:20.994Z,-4.92
2022-12-25T11:25:58.624Z,-4.82
2022-12-25T11:28:29.381Z,-4.64
2022-12-25T11:31:02.187Z,-4.64
2022-12-25T11:33:36.160Z,-4.65
2022-12-25T11:36:14.261Z,-4.70
2022-12-25T11:38:42.708Z,-4.54
2022-12-25T11:41:15.058Z,-4.34
2022-12-25T11:43:50.925Z,-4.53
2022-12-25T11:46:24.315Z,-4.71
2022-12-25T11:48:57.572Z,-4.80
2022-12-25T11:51:30.696Z,-4.94
2022-12-25T11:54:05.422Z,-4.94
2022-12-25T11:56:35.697Z,-4.82
2022-12-25T11:59:14.957Z,-4.88
2022-12-25T12:01:50.444Z,-4.74
2022-12-25T12:04:30.024Z,-4.59
2022-12-25T12:07:06.377Z,-4.34
2022-12-25T12:09:43.639Z,-4.53
2022-12-25T12:12:21.358Z,-4.71
2022-12-25T12:14:57.305Z,-4.45
2022-12-25T12:17:25.841Z,-4.45
2022-12-25T12:19:54.279Z,-4.56
2022-12-25T12:22:25.362Z,-4.46
2022-12-25T12:24:56.583Z,-4.40
2022-12-25T12:27:31.223Z,-4.42
2022-12-25T12:30:01.295Z,-4.65
2022-12-25T12:32:38.088Z,-4.22
2022-12-25T12:35:10.777Z,-4.28
2022-12-25T12:37:41.897Z,-4.26
2022-12-25T12:40:35.120Z,-4.74
2022-12-25T12:43:06.749Z,-4.41
2022-12-25T12:45:37.966Z,-4.20
2022-12-25T12:48:16.701Z,-4.26
2022-12-25T12:50:45.163Z,-4.31
2022-12-25T12:53:32.950Z,-4.44
2022-12-25T12:56:16.955Z,-4.50
2022-12-25T12:58:50.939Z,-4.47
2022-12-25T13:01:46.318Z,-4.30
2022-12-25T13:04:35.361Z,-4.25
2022-12-25T13:07:13.185Z,-4.51
2022-12-25T13:09:57.878Z,-4.63
2022-12-25T13:12:26.979Z,-4.54
2022-12-25T13:14:57.090Z,-4.55
2022-12-25T13:17:27.664Z,-4.72
2022-12-25T13:19:58.880Z,-4.72
2022-12-25T13:22:33.412Z,-5.01
2022-12-25T13:25:05.852Z,-4.98
2022-12-25T13:27:35.418Z,-5.24
2022-12-25T13:30:16.120Z,-5.31
2022-12-25T13:32:46.147Z,-5.35
2022-12-25T13:35:15.809Z,-5.62
2022-12-25T13:37:45.767Z,-5.49
2022-12-25T13:40:22.682Z,-5.56
2022-12-25T13:42:52.797Z,-5.48
2022-12-25T13:45:25.180Z,-5.48
2022-12-25T13:47:55.786Z,-5.27
2022-12-25T13:50:27.808Z,-5.14
2022-12-25T13:52:58.381Z,-5.13
2022-12-25T13:55:28.494Z,-5.04
2022-12-25T13:57:59.365Z,-5.50
2022-12-25T14:00:35.059Z,-5.50
2022-12-25T14:03:04.874Z,-5.32
2022-12-25T14:05:42.218Z,-5.32
2022-12-25T14:08:17.066Z,-5.23
2022-12-25T14:10:49.682Z,-5.44
2022-12-25T14:13:21.316Z,-5.50
2022-12-25T14:15:51.657Z,-5.94
2022-12-25T14:18:22.023Z,-6.35
2022-12-25T14:21:01.108Z,-6.47
2022-12-25T14:23:34.297Z,-6.61
2022-12-25T14:26:02.861Z,-6.62
2022-12-25T14:28:34.719Z,-6.97
2022-12-25T14:31:05.698Z,-7.05
2022-12-25T14:33:36.867Z,-7.15
2022-12-25T14:36:06.819Z,-7.27
2022-12-25T14:38:36.180Z,-7.14
2022-12-25T14:41:07.804Z,-7.23
2022-12-25T14:43:36.758Z,-7.14
2022-12-25T14:46:07.592Z,-7.10
2022-12-25T14:48:36.141Z,-6.85
2022-12-25T14:51:08.165Z,-6.66
2022-12-25T14:53:41.023Z,-6.54
2022-12-25T14:56:10.509Z,-6.39
2022-12-25T14:58:43.301Z,-6.38
2022-12-25T15:01:23.078Z,-6.16
2022-12-25T15:03:51.835Z,-6.61
2022-12-25T15:06:25.066Z,-6.81
2022-12-25T15:08:58.343Z,-6.81
2022-12-25T15:11:27.230Z,-6.88
2022-12-25T15:13:55.759Z,-6.81
2022-12-25T15:16:28.161Z,-6.55
2022-12-25T15:18:56.962Z,-6.76
2022-12-25T15:21:28.919Z,-7.01
2022-12-25T15:23:59.447Z,-7.10
2022-12-25T15:26:29.035Z,-7.10
2022-12-25T15:28:57.622Z,-7.15
2022-12-25T15:31:29.863Z,-7.03
2022-12-25T15:33:59.983Z,-7.09
2022-12-25T15:36:29.341Z,-7.19
2022-12-25T15:38:58.377Z,-7.65
2022-12-25T15:41:46.928Z,-7.62
2022-12-25T15:44:16.221Z,-7.43
2022-12-25T15:46:46.669Z,-7.25
2022-12-25T15:49:16.417Z,-7.02
2022-12-25T15:51:45.776Z,-6.87
2022-12-25T15:54:14.502Z,-6.72
2022-12-25T15:56:45.997Z,-7.20
2022-12-25T15:59:16.463Z,-7.79
2022-12-25T16:01:50.602Z,-7.58
2022-12-25T16:04:19.407Z,-7.82
2022-12-25T16:06:48.307Z,-8.01
2022-12-25T16:09:18.119Z,-8.23
2022-12-25T16:11:46.522Z,-8.23
2022-12-25T16:14:15.157Z,-8.38
2022-12-25T16:16:43.821Z,-8.54
2022-12-25T16:19:13.948Z,-8.63
2022-12-25T16:21:44.963Z,-8.77
2022-12-25T16:24:13.773Z,-9.13
2022-12-25T16:26:42.297Z,-9.28
2022-12-25T16:29:11.111Z,-9.36
2022-12-25T16:31:40.687Z,-9.31
2022-12-25T16:34:09.788Z,-9.10
2022-12-25T16:36:40.261Z,-9.15
2022-12-25T16:39:08.954Z,-8.87
2022-12-25T16:41:37.480Z,-8.67
2022-12-25T16:44:10.344Z,-8.53
2022-12-25T16:46:40.932Z,-8.52
2022-12-25T16:49:09.960Z,-8.96
2022-12-25T16:51:39.921Z,-9.10
2022-12-25T16:54:08.448Z,-9.23
2022-12-25T16:56:38.787Z,-9.40
2022-12-25T16:59:07.320Z,-9.41
2022-12-25T17:01:36.097Z,-9.42
2022-12-25T17:04:05.416Z,-9.58
2022-12-25T17:06:33.883Z,-9.73
2022-12-25T17:09:04.957Z,-9.88
2022-12-25T17:11:33.329Z,-9.97
2022-12-25T17:14:03.861Z,-10.05
2022-12-25T17:16:34.921Z,-9.63
2022-12-25T17:19:05.608Z,-9.71
2022-12-25T17:21:34.475Z,-9.70
2022-12-25T17:24:04.683Z,-9.69
2022-12-25T17:26:33.772Z,-9.93
2022-12-25T17:29:02.625Z,-9.76
2022-12-25T17:31:31.319Z,-9.77
2022-12-25T17:34:02.156Z,-9.87
2022-12-25T17:36:31.179Z,-9.91
2022-12-25T17:39:00.985Z,-9.68
2022-12-25T17:41:31.077Z,-9.60
2022-12-25T17:43:59.517Z,-9.87
2022-12-25T17:46:29.660Z,-10.24
2022-12-25T17:49:01.348Z,-10.38
2022-12-25T17:51:31.936Z,-10.27
2022-12-25T17:54:03.455Z,-10.10
2022-12-25T17:56:34.621Z,-10.13
2022-12-25T17:59:06.973Z,-10.09
2022-12-25T18:01:37.853Z,-9.90
2022-12-25T18:04:07.125Z,-9.97
2022-12-25T18:06:37.277Z,-9.79
2022-12-25T18:09:07.396Z,-9.74
2022-12-25T18:11:40.078Z,-9.95
2022-12-25T18:14:11.136Z,-10.37
2022-12-25T18:16:42.217Z,-10.20
2022-12-25T18:19:11.300Z,-9.93
2022-12-25T18:21:39.752Z,-9.67
2022-12-25T18:24:09.777Z,-9.42
2022-12-25T18:26:39.818Z,-9.28
2022-12-25T18:29:08.283Z,-9.15
2022-12-25T18:31:37.238Z,-9.03
2022-12-25T18:34:05.978Z,-8.93
2022-12-25T18:36:34.523Z,-8.78
2022-12-25T18:39:03.040Z,-8.84
2022-12-25T18:41:31.582Z,-8.83
2022-12-25T18:44:02.622Z,-8.67
2022-12-25T18:46:30.981Z,-8.60
2022-12-25T18:48:59.523Z,-8.56
2022-12-25T18:51:34.947Z,-8.50
2022-12-25T18:54:05.768Z,-8.44
2022-12-25T18:56:34.413Z,-8.33
2022-12-25T18:59:04.459Z,-8.27
2022-12-25T19:01:32.926Z,-8.17
2022-12-25T19:04:05.597Z,-8.27
2022-12-25T19:06:34.925Z,-8.19
2022-12-25T19:09:09.545Z,-8.16
2022-12-25T19:11:45.618Z,-8.26
2022-12-25T19:14:16.840Z,-8.11
2022-12-25T19:16:45.279Z,-8.27
2022-12-25T19:19:14.299Z,-8.19
2022-12-25T19:21:42.898Z,-8.08
2022-12-25T19:24:11.357Z,-8.11
2022-12-25T19:26:39.820Z,-8.06
2022-12-25T19:29:08.391Z,-7.96
2022-12-25T19:31:38.462Z,-7.98
2022-12-25T19:34:07.082Z,-7.94
2022-12-25T19:36:35.955Z,-7.78
2022-12-25T19:39:05.762Z,-7.91
2022-12-25T19:41:34.585Z,-7.89
2022-12-25T19:44:04.000Z,-7.86
2022-12-25T19:46:34.641Z,-7.82
2022-12-25T19:49:05.232Z,-7.75
2022-12-25T19:51:35.561Z,-7.74
2022-12-25T19:54:04.819Z,-7.86
2022-12-25T19:56:34.383Z,-7.76
2022-12-25T19:59:02.834Z,-7.86
2022-12-25T20:01:32.086Z,-7.86
2022-12-25T20:04:00.612Z,-7.81
2022-12-25T20:06:32.082Z,-7.72
2022-12-25T20:09:02.637Z,-7.72
2022-12-25T20:11:32.916Z,-7.74
2022-12-25T20:14:01.595Z,-7.63
2022-12-25T20:16:30.410Z,-7.85
2022-12-25T20:18:59.111Z,-7.75
2022-12-25T20:21:30.168Z,-7.74
2022-12-25T20:23:59.718Z,-7.83
2022-12-25T20:26:30.420Z,-7.93
2022-12-25T20:28:59.764Z,-7.87
2022-12-25T20:31:30.666Z,-7.80
2022-12-25T20:34:01.324Z,-7.71
2022-12-25T20:36:36.451Z,-7.65
2022-12-25T20:39:10.154Z,-7.70
2022-12-25T20:41:40.507Z,-7.75
2022-12-25T20:44:10.468Z,-7.69
2022-12-25T20:46:39.249Z,-7.73
2022-12-25T20:49:07.755Z,-7.78
2022-12-25T20:51:36.523Z,-7.75
2022-12-25T20:54:09.757Z,-7.73
2022-12-25T20:56:40.467Z,-7.69
2022-12-25T20:59:11.718Z,-7.64
2022-12-25T21:01:42.669Z,-7.59
2022-12-25T21:04:16.050Z,-7.70
2022-12-25T21:06:45.057Z,-7.63
2022-12-25T21:09:14.964Z,-7.75
2022-12-25T21:11:43.438Z,-7.91
2022-12-25T21:14:12.210Z,-7.62
2022-12-25T21:16:40.740Z,-7.59
2022-12-25T21:19:09.180Z,-7.67
2022-12-25T21:21:42.898Z,-7.67
2022-12-25T21:24:11.740Z,-7.69
2022-12-25T21:26:47.680Z,-7.82
2022-12-25T21:29:18.028Z,-7.84
2022-12-25T21:32:04.071Z,-7.96
2022-12-25T21:34:32.481Z,-7.97
2022-12-25T21:37:01.899Z,-7.93
2022-12-25T21:39:30.503Z,-7.97
2022-12-25T21:42:00.741Z,-7.77
2022-12-25T21:44:29.181Z,-7.82
2022-12-25T21:46:57.598Z,-8.08
2022-12-25T21:49:43.738Z,-8.00
2022-12-25T21:52:12.333Z,-8.00
2022-12-25T21:54:40.701Z,-8.03
2022-12-25T21:57:10.584Z,-8.02
2022-12-25T21:59:39.058Z,-7.97
2022-12-25T22:02:11.658Z,-7.91
2022-12-25T22:04:40.644Z,-8.07
2022-12-25T22:07:18.929Z,-7.97
2022-12-25T22:09:48.846Z,-7.97
2022-12-25T22:12:37.900Z,-7.97
2022-12-25T22:15:09.922Z,-8.01
2022-12-25T22:17:57.512Z,-7.95
2022-12-25T22:20:30.237Z,-7.94
2022-12-25T22:22:59.123Z,-7.97
2022-12-25T22:25:27.970Z,-8.04
2022-12-25T22:27:57.888Z,-7.93
2022-12-25T22:30:28.507Z,-7.94
2022-12-25T22:32:57.484Z,-7.83
2022-12-25T22:35:26.426Z,-7.77
2022-12-25T22:37:55.317Z,-7.80
2022-12-25T22:40:23.813Z,-7.83
2022-12-25T22:42:55.204Z,-7.83
2022-12-25T22:45:25.348Z,-7.75
2022-12-25T22:47:53.716Z,-7.75
2022-12-25T22:50:22.367Z,-7.76
2022-12-25T22:52:50.896Z,-7.86
2022-12-25T22:55:20.356Z,-7.82
2022-12-25T22:57:49.168Z,-7.90
2022-12-25T23:00:17.741Z,-7.86
2022-12-25T23:02:48.050Z,-7.83
2022-12-25T23:05:16.843Z,-7.82
2022-12-25T23:07:45.302Z,-7.84
2022-12-25T23:10:13.813Z,-7.82
2022-12-25T23:13:00.120Z,-7.74
2022-12-25T23:15:29.172Z,-7.85
2022-12-25T23:18:16.390Z,-7.82
2022-12-25T23:21:02.615Z,-7.89
2022-12-25T23:23:48.430Z,-7.87
2022-12-25T23:26:17.590Z,-7.76
2022-12-25T23:29:03.183Z,-7.79
2022-12-25T23:31:34.020Z,-7.88
2022-12-25T23:34:05.491Z,-7.89
2022-12-25T23:36:34.356Z,-7.94
2022-12-25T23:39:09.102Z,-7.81
2022-12-25T23:41:39.452Z,-7.90
2022-12-25T23:44:08.302Z,-7.82
2022-12-25T23:46:37.366Z,-7.74
2022-12-25T23:49:08.152Z,-7.75
2022-12-25T23:51:36.824Z,-7.84
2022-12-25T23:54:05.629Z,-7.74
2022-12-25T23:56:34.562Z,-7.75
2022-12-25T23:59:05.050Z,-7.80
